<?xml version="1.0" encoding="utf-8"?>
<gpx xmlns:xsi="http://www.w3.org/2001/XMLSchema-instance" xmlns:xsd="http://www.w3.org/2001/XMLSchema" version="1.1" creator="Shapelink.com" xmlns="http://www.topografix.com/GPX/1/1" xmlns:gpxtpx="http://www.garmin.com/xmlschemas/TrackPointExtension/v1">
  <metadata>
    <name>Promenad 5.82 km, 2017-02-21</name>
    <desc></desc>
    <author><name>Morten Hedlund</name></author> 
    <time>2017-02-21T13:09:53Z</time>
  </metadata>
  <trk>
    <name>Promenad 5.82 km, 2017-02-21</name>
    <trkseg>
      <trkpt lat="60.249720897179" lon="11.029240804742">
        <ele>195.8</ele>
        <time>2017-02-21T13:09:53Z</time>
      </trkpt>
      <trkpt lat="60.249547224211" lon="11.029096971338">
        <ele>196.6</ele>
        <time>2017-02-21T13:10:05Z</time>
      </trkpt>
      <trkpt lat="60.249506320539" lon="11.029081129547">
        <ele>197.6</ele>
        <time>2017-02-21T13:10:08Z</time>
      </trkpt>
      <trkpt lat="60.249402804074" lon="11.029396540444">
        <ele>199.6</ele>
        <time>2017-02-21T13:10:20Z</time>
      </trkpt>
      <trkpt lat="60.249315548495" lon="11.029726787304">
        <ele>200.6</ele>
        <time>2017-02-21T13:10:32Z</time>
      </trkpt>
      <trkpt lat="60.249207421985" lon="11.03002803279">
        <ele>201.4</ele>
        <time>2017-02-21T13:10:43Z</time>
      </trkpt>
      <trkpt lat="60.249092673774" lon="11.03032559024">
        <ele>200.4</ele>
        <time>2017-02-21T13:10:55Z</time>
      </trkpt>
      <trkpt lat="60.248990246956" lon="11.030653573987">
        <ele>199</ele>
        <time>2017-02-21T13:11:07Z</time>
      </trkpt>
      <trkpt lat="60.248878097134" lon="11.030954148921">
        <ele>197.4</ele>
        <time>2017-02-21T13:11:18Z</time>
      </trkpt>
      <trkpt lat="60.248749434969" lon="11.031224297558">
        <ele>195.6</ele>
        <time>2017-02-21T13:11:29Z</time>
      </trkpt>
      <trkpt lat="60.24862529903" lon="11.031497296041">
        <ele>193.8</ele>
        <time>2017-02-21T13:11:40Z</time>
      </trkpt>
      <trkpt lat="60.248477945228" lon="11.031760487701">
        <ele>193.4</ele>
        <time>2017-02-21T13:11:52Z</time>
      </trkpt>
      <trkpt lat="60.248360850085" lon="11.03204555612">
        <ele>193</ele>
        <time>2017-02-21T13:12:04Z</time>
      </trkpt>
      <trkpt lat="60.248265128787" lon="11.032371528211">
        <ele>191.6</ele>
        <time>2017-02-21T13:12:17Z</time>
      </trkpt>
      <trkpt lat="60.248168401661" lon="11.032694818094">
        <ele>190.4</ele>
        <time>2017-02-21T13:12:29Z</time>
      </trkpt>
      <trkpt lat="60.248057509124" lon="11.032984831834">
        <ele>189</ele>
        <time>2017-02-21T13:12:40Z</time>
      </trkpt>
      <trkpt lat="60.247925913294" lon="11.033280293809">
        <ele>188.4</ele>
        <time>2017-02-21T13:12:52Z</time>
      </trkpt>
      <trkpt lat="60.247815523671" lon="11.033601488217">
        <ele>188.4</ele>
        <time>2017-02-21T13:13:05Z</time>
      </trkpt>
      <trkpt lat="60.247701781288" lon="11.033907930481">
        <ele>189</ele>
        <time>2017-02-21T13:13:18Z</time>
      </trkpt>
      <trkpt lat="60.247591391665" lon="11.034190903425">
        <ele>189.2</ele>
        <time>2017-02-21T13:13:29Z</time>
      </trkpt>
      <trkpt lat="60.247483516612" lon="11.03451821662">
        <ele>190</ele>
        <time>2017-02-21T13:13:42Z</time>
      </trkpt>
      <trkpt lat="60.247362481976" lon="11.034813427138">
        <ele>190.2</ele>
        <time>2017-02-21T13:13:54Z</time>
      </trkpt>
      <trkpt lat="60.2472280363" lon="11.035077121712">
        <ele>190</ele>
        <time>2017-02-21T13:14:06Z</time>
      </trkpt>
      <trkpt lat="60.24709141133" lon="11.03534551015">
        <ele>189</ele>
        <time>2017-02-21T13:14:18Z</time>
      </trkpt>
      <trkpt lat="60.246981776078" lon="11.035631752035">
        <ele>187.6</ele>
        <time>2017-02-21T13:14:30Z</time>
      </trkpt>
      <trkpt lat="60.246908015358" lon="11.035985971129">
        <ele>184.4</ele>
        <time>2017-02-21T13:14:42Z</time>
      </trkpt>
      <trkpt lat="60.246909691738" lon="11.036285540235">
        <ele>182.4</ele>
        <time>2017-02-21T13:14:52Z</time>
      </trkpt>
      <trkpt lat="60.246928886289" lon="11.036505816567">
        <ele>186.4</ele>
        <time>2017-02-21T13:15:21Z</time>
      </trkpt>
      <trkpt lat="60.247029049994" lon="11.036815360134">
        <ele>186.4</ele>
        <time>2017-02-21T13:15:31Z</time>
      </trkpt>
      <trkpt lat="60.247113036632" lon="11.037142170415">
        <ele>185</ele>
        <time>2017-02-21T13:15:43Z</time>
      </trkpt>
      <trkpt lat="60.247206410998" lon="11.03745858714">
        <ele>186</ele>
        <time>2017-02-21T13:15:56Z</time>
      </trkpt>
      <trkpt lat="60.247302048477" lon="11.037793527864">
        <ele>188.2</ele>
        <time>2017-02-21T13:16:08Z</time>
      </trkpt>
      <trkpt lat="60.247407492779" lon="11.038109441675">
        <ele>189.6</ele>
        <time>2017-02-21T13:16:20Z</time>
      </trkpt>
      <trkpt lat="60.247519139687" lon="11.038410519523">
        <ele>191.4</ele>
        <time>2017-02-21T13:16:32Z</time>
      </trkpt>
      <trkpt lat="60.247676048855" lon="11.038624928525">
        <ele>192.2</ele>
        <time>2017-02-21T13:16:44Z</time>
      </trkpt>
      <trkpt lat="60.247810829807" lon="11.038878648638">
        <ele>192.8</ele>
        <time>2017-02-21T13:16:56Z</time>
      </trkpt>
      <trkpt lat="60.24790277925" lon="11.039042347145">
        <ele>192.8</ele>
        <time>2017-02-21T13:17:04Z</time>
      </trkpt>
      <trkpt lat="60.248049797776" lon="11.039290954299">
        <ele>193.4</ele>
        <time>2017-02-21T13:17:16Z</time>
      </trkpt>
      <trkpt lat="60.248196229569" lon="11.03955322395">
        <ele>193.6</ele>
        <time>2017-02-21T13:17:28Z</time>
      </trkpt>
      <trkpt lat="60.248335704385" lon="11.039817924352">
        <ele>193.6</ele>
        <time>2017-02-21T13:17:39Z</time>
      </trkpt>
      <trkpt lat="60.248463612179" lon="11.040113889241">
        <ele>193.4</ele>
        <time>2017-02-21T13:17:50Z</time>
      </trkpt>
      <trkpt lat="60.248587831937" lon="11.040409518854">
        <ele>194</ele>
        <time>2017-02-21T13:18:01Z</time>
      </trkpt>
      <trkpt lat="60.248691851316" lon="11.040713698005">
        <ele>194</ele>
        <time>2017-02-21T13:18:12Z</time>
      </trkpt>
      <trkpt lat="60.24878455513" lon="11.041055344249">
        <ele>193.6</ele>
        <time>2017-02-21T13:18:24Z</time>
      </trkpt>
      <trkpt lat="60.248860159868" lon="11.041387267489">
        <ele>193</ele>
        <time>2017-02-21T13:18:35Z</time>
      </trkpt>
      <trkpt lat="60.248931741294" lon="11.041749784664">
        <ele>193.4</ele>
        <time>2017-02-21T13:18:46Z</time>
      </trkpt>
      <trkpt lat="60.249005250557" lon="11.042108613803">
        <ele>194.4</ele>
        <time>2017-02-21T13:18:58Z</time>
      </trkpt>
      <trkpt lat="60.249080939114" lon="11.042445314726">
        <ele>195</ele>
        <time>2017-02-21T13:19:09Z</time>
      </trkpt>
      <trkpt lat="60.249176660412" lon="11.042764665116">
        <ele>195.4</ele>
        <time>2017-02-21T13:19:20Z</time>
      </trkpt>
      <trkpt lat="60.249294342288" lon="11.043061216738">
        <ele>196.4</ele>
        <time>2017-02-21T13:19:32Z</time>
      </trkpt>
      <trkpt lat="60.249417975313" lon="11.043324995131">
        <ele>196.4</ele>
        <time>2017-02-21T13:19:43Z</time>
      </trkpt>
      <trkpt lat="60.249551247523" lon="11.043592796836">
        <ele>196.6</ele>
        <time>2017-02-21T13:19:55Z</time>
      </trkpt>
      <trkpt lat="60.249646298269" lon="11.043787592192">
        <ele>196.8</ele>
        <time>2017-02-21T13:20:04Z</time>
      </trkpt>
      <trkpt lat="60.249762639041" lon="11.044085987832">
        <ele>196.6</ele>
        <time>2017-02-21T13:20:16Z</time>
      </trkpt>
      <trkpt lat="60.249863808574" lon="11.044385808395">
        <ele>196.8</ele>
        <time>2017-02-21T13:20:26Z</time>
      </trkpt>
      <trkpt lat="60.249947543755" lon="11.044718569825">
        <ele>196.2</ele>
        <time>2017-02-21T13:20:37Z</time>
      </trkpt>
      <trkpt lat="60.250027255624" lon="11.045056025119">
        <ele>196</ele>
        <time>2017-02-21T13:20:50Z</time>
      </trkpt>
      <trkpt lat="60.250107889502" lon="11.045392139309">
        <ele>196.2</ele>
        <time>2017-02-21T13:21:02Z</time>
      </trkpt>
      <trkpt lat="60.25019103795" lon="11.045742754186">
        <ele>195.2</ele>
        <time>2017-02-21T13:21:15Z</time>
      </trkpt>
      <trkpt lat="60.250282233022" lon="11.046060512015">
        <ele>195.4</ele>
        <time>2017-02-21T13:21:26Z</time>
      </trkpt>
      <trkpt lat="60.250399495803" lon="11.046379024215">
        <ele>194.8</ele>
        <time>2017-02-21T13:21:38Z</time>
      </trkpt>
      <trkpt lat="60.250524302294" lon="11.046646071549">
        <ele>196.4</ele>
        <time>2017-02-21T13:21:49Z</time>
      </trkpt>
      <trkpt lat="60.250645085473" lon="11.046929798864">
        <ele>195.8</ele>
        <time>2017-02-21T13:22:00Z</time>
      </trkpt>
      <trkpt lat="60.250763437901" lon="11.047211598342">
        <ele>196.6</ele>
        <time>2017-02-21T13:22:14Z</time>
      </trkpt>
      <trkpt lat="60.250869468936" lon="11.047512089457">
        <ele>202.8</ele>
        <time>2017-02-21T13:22:27Z</time>
      </trkpt>
      <trkpt lat="60.250954209945" lon="11.047844515611">
        <ele>201.6</ele>
        <time>2017-02-21T13:22:38Z</time>
      </trkpt>
      <trkpt lat="60.251035514375" lon="11.04818909552">
        <ele>203.4</ele>
        <time>2017-02-21T13:22:52Z</time>
      </trkpt>
      <trkpt lat="60.251111119113" lon="11.048533843067">
        <ele>199.8</ele>
        <time>2017-02-21T13:23:04Z</time>
      </trkpt>
      <trkpt lat="60.251163505988" lon="11.048883033021">
        <ele>195.2</ele>
        <time>2017-02-21T13:23:15Z</time>
      </trkpt>
      <trkpt lat="60.251236177061" lon="11.049221829419">
        <ele>192</ele>
        <time>2017-02-21T13:23:27Z</time>
      </trkpt>
      <trkpt lat="60.251325444296" lon="11.04954361056">
        <ele>196</ele>
        <time>2017-02-21T13:23:37Z</time>
      </trkpt>
      <trkpt lat="60.251377747352" lon="11.04991492873">
        <ele>196.8</ele>
        <time>2017-02-21T13:23:49Z</time>
      </trkpt>
      <trkpt lat="60.251426613829" lon="11.050291695135">
        <ele>196</ele>
        <time>2017-02-21T13:24:01Z</time>
      </trkpt>
      <trkpt lat="60.25147095408" lon="11.050668629178">
        <ele>197</ele>
        <time>2017-02-21T13:24:13Z</time>
      </trkpt>
      <trkpt lat="60.251517976539" lon="11.05104480885">
        <ele>200.6</ele>
        <time>2017-02-21T13:24:27Z</time>
      </trkpt>
      <trkpt lat="60.251550330673" lon="11.051404308541">
        <ele>200.6</ele>
        <time>2017-02-21T13:24:39Z</time>
      </trkpt>
      <trkpt lat="60.251568770853" lon="11.051765316974">
        <ele>199.6</ele>
        <time>2017-02-21T13:24:50Z</time>
      </trkpt>
      <trkpt lat="60.251586875757" lon="11.052134372031">
        <ele>201.2</ele>
        <time>2017-02-21T13:25:02Z</time>
      </trkpt>
      <trkpt lat="60.251599280969" lon="11.05277986215">
        <ele>203.8</ele>
        <time>2017-02-21T13:25:22Z</time>
      </trkpt>
      <trkpt lat="60.251587378671" lon="11.053160065134">
        <ele>203.6</ele>
        <time>2017-02-21T13:25:34Z</time>
      </trkpt>
      <trkpt lat="60.251575811649" lon="11.05352668944">
        <ele>199.4</ele>
        <time>2017-02-21T13:25:45Z</time>
      </trkpt>
      <trkpt lat="60.251579751142" lon="11.053908233528">
        <ele>201.8</ele>
        <time>2017-02-21T13:25:58Z</time>
      </trkpt>
      <trkpt lat="60.251566759197" lon="11.054285670485">
        <ele>199.4</ele>
        <time>2017-02-21T13:26:10Z</time>
      </trkpt>
      <trkpt lat="60.251578996771" lon="11.054651456601">
        <ele>199.6</ele>
        <time>2017-02-21T13:26:21Z</time>
      </trkpt>
      <trkpt lat="60.251562735885" lon="11.055027971549">
        <ele>196</ele>
        <time>2017-02-21T13:26:32Z</time>
      </trkpt>
      <trkpt lat="60.251582600988" lon="11.055416472614">
        <ele>196.2</ele>
        <time>2017-02-21T13:26:43Z</time>
      </trkpt>
      <trkpt lat="60.251606070308" lon="11.055783767472">
        <ele>192.2</ele>
        <time>2017-02-21T13:26:55Z</time>
      </trkpt>
      <trkpt lat="60.251679076657" lon="11.056138657118">
        <ele>192.2</ele>
        <time>2017-02-21T13:27:07Z</time>
      </trkpt>
      <trkpt lat="60.251725847659" lon="11.056503437406">
        <ele>192.4</ele>
        <time>2017-02-21T13:27:19Z</time>
      </trkpt>
      <trkpt lat="60.251792735221" lon="11.056871402816">
        <ele>194</ele>
        <time>2017-02-21T13:27:30Z</time>
      </trkpt>
      <trkpt lat="60.251834225626" lon="11.057247750126">
        <ele>196.8</ele>
        <time>2017-02-21T13:27:42Z</time>
      </trkpt>
      <trkpt lat="60.251876135126" lon="11.057623929798">
        <ele>200.8</ele>
        <time>2017-02-21T13:27:54Z</time>
      </trkpt>
      <trkpt lat="60.251879655524" lon="11.0579975949">
        <ele>201.6</ele>
        <time>2017-02-21T13:28:05Z</time>
      </trkpt>
      <trkpt lat="60.251896586962" lon="11.058380396273">
        <ele>203.4</ele>
        <time>2017-02-21T13:28:17Z</time>
      </trkpt>
      <trkpt lat="60.251894156211" lon="11.058748194045">
        <ele>199.8</ele>
        <time>2017-02-21T13:28:29Z</time>
      </trkpt>
      <trkpt lat="60.25192692944" lon="11.059105933537">
        <ele>198.6</ele>
        <time>2017-02-21T13:28:40Z</time>
      </trkpt>
      <trkpt lat="60.251974119537" lon="11.059474401861">
        <ele>196.6</ele>
        <time>2017-02-21T13:28:52Z</time>
      </trkpt>
      <trkpt lat="60.25199985197" lon="11.05966475481">
        <ele>193.8</ele>
        <time>2017-02-21T13:29:00Z</time>
      </trkpt>
      <trkpt lat="60.252067410084" lon="11.06000505995">
        <ele>195.6</ele>
        <time>2017-02-21T13:29:12Z</time>
      </trkpt>
      <trkpt lat="60.252194647326" lon="11.060256181674">
        <ele>196.8</ele>
        <time>2017-02-21T13:29:23Z</time>
      </trkpt>
      <trkpt lat="60.252375277271" lon="11.060259953529">
        <ele>200.6</ele>
        <time>2017-02-21T13:29:34Z</time>
      </trkpt>
      <trkpt lat="60.252558757062" lon="11.060333295154">
        <ele>199.2</ele>
        <time>2017-02-21T13:29:47Z</time>
      </trkpt>
      <trkpt lat="60.252743410319" lon="11.060316615173">
        <ele>198.2</ele>
        <time>2017-02-21T13:29:59Z</time>
      </trkpt>
      <trkpt lat="60.25290174441" lon="11.060143528938">
        <ele>199</ele>
        <time>2017-02-21T13:30:10Z</time>
      </trkpt>
      <trkpt lat="60.25304172214" lon="11.059902381675">
        <ele>200.2</ele>
        <time>2017-02-21T13:30:22Z</time>
      </trkpt>
      <trkpt lat="60.253185220268" lon="11.059651008494">
        <ele>200.6</ele>
        <time>2017-02-21T13:30:35Z</time>
      </trkpt>
      <trkpt lat="60.253263674852" lon="11.05951807156">
        <ele>201.2</ele>
        <time>2017-02-21T13:30:42Z</time>
      </trkpt>
      <trkpt lat="60.253394348673" lon="11.059264435266">
        <ele>201.4</ele>
        <time>2017-02-21T13:30:54Z</time>
      </trkpt>
      <trkpt lat="60.253499625337" lon="11.058959585563">
        <ele>200.8</ele>
        <time>2017-02-21T13:31:06Z</time>
      </trkpt>
      <trkpt lat="60.253600711051" lon="11.058631182721">
        <ele>201</ele>
        <time>2017-02-21T13:31:18Z</time>
      </trkpt>
      <trkpt lat="60.253707580276" lon="11.058318202575">
        <ele>202</ele>
        <time>2017-02-21T13:31:30Z</time>
      </trkpt>
      <trkpt lat="60.25383716445" lon="11.058041432237">
        <ele>201.4</ele>
        <time>2017-02-21T13:31:42Z</time>
      </trkpt>
      <trkpt lat="60.253961048932" lon="11.057778659672">
        <ele>202.6</ele>
        <time>2017-02-21T13:31:53Z</time>
      </trkpt>
      <trkpt lat="60.254098512092" lon="11.05751395927">
        <ele>201.8</ele>
        <time>2017-02-21T13:32:05Z</time>
      </trkpt>
      <trkpt lat="60.254228096266" lon="11.057235596371">
        <ele>201.4</ele>
        <time>2017-02-21T13:32:17Z</time>
      </trkpt>
      <trkpt lat="60.254321219175" lon="11.056971147426">
        <ele>201.6</ele>
        <time>2017-02-21T13:32:29Z</time>
      </trkpt>
      <trkpt lat="60.254440577431" lon="11.056700663513">
        <ele>199.8</ele>
        <time>2017-02-21T13:32:50Z</time>
      </trkpt>
      <trkpt lat="60.25452783301" lon="11.056379301467">
        <ele>201.2</ele>
        <time>2017-02-21T13:33:01Z</time>
      </trkpt>
      <trkpt lat="60.254626320335" lon="11.056070512271">
        <ele>202.4</ele>
        <time>2017-02-21T13:33:12Z</time>
      </trkpt>
      <trkpt lat="60.254744002211" lon="11.055792736105">
        <ele>200.6</ele>
        <time>2017-02-21T13:33:23Z</time>
      </trkpt>
      <trkpt lat="60.254906359614" lon="11.055580171121">
        <ele>198</ele>
        <time>2017-02-21T13:33:35Z</time>
      </trkpt>
      <trkpt lat="60.255047343172" lon="11.055352183441">
        <ele>198.4</ele>
        <time>2017-02-21T13:33:46Z</time>
      </trkpt>
      <trkpt lat="60.255173490767" lon="11.055081112795">
        <ele>201.2</ele>
        <time>2017-02-21T13:33:57Z</time>
      </trkpt>
      <trkpt lat="60.255281784915" lon="11.054789757951">
        <ele>200</ele>
        <time>2017-02-21T13:34:08Z</time>
      </trkpt>
      <trkpt lat="60.255392761271" lon="11.054504354256">
        <ele>199.6</ele>
        <time>2017-02-21T13:34:19Z</time>
      </trkpt>
      <trkpt lat="60.255455122607" lon="11.05414862642">
        <ele>199</ele>
        <time>2017-02-21T13:34:30Z</time>
      </trkpt>
      <trkpt lat="60.255493176433" lon="11.053764400124">
        <ele>199.6</ele>
        <time>2017-02-21T13:34:42Z</time>
      </trkpt>
      <trkpt lat="60.255507928577" lon="11.053651747388">
        <ele>199.4</ele>
        <time>2017-02-21T13:34:46Z</time>
      </trkpt>
      <trkpt lat="60.255538271055" lon="11.053287470014">
        <ele>198</ele>
        <time>2017-02-21T13:34:59Z</time>
      </trkpt>
      <trkpt lat="60.255540198892" lon="11.052921264803">
        <ele>197.8</ele>
        <time>2017-02-21T13:35:10Z</time>
      </trkpt>
      <trkpt lat="60.255581354021" lon="11.052550365728">
        <ele>197.6</ele>
        <time>2017-02-21T13:35:22Z</time>
      </trkpt>
      <trkpt lat="60.255637177475" lon="11.052176616807">
        <ele>198.8</ele>
        <time>2017-02-21T13:35:34Z</time>
      </trkpt>
      <trkpt lat="60.255672884369" lon="11.051799598945">
        <ele>198.2</ele>
        <time>2017-02-21T13:35:47Z</time>
      </trkpt>
      <trkpt lat="60.255680428079" lon="11.051425430929">
        <ele>199.4</ele>
        <time>2017-02-21T13:35:59Z</time>
      </trkpt>
      <trkpt lat="60.255703310666" lon="11.051066350333">
        <ele>202</ele>
        <time>2017-02-21T13:36:09Z</time>
      </trkpt>
      <trkpt lat="60.255714542412" lon="11.050685560616">
        <ele>202.4</ele>
        <time>2017-02-21T13:36:21Z</time>
      </trkpt>
      <trkpt lat="60.255720493561" lon="11.050294042067">
        <ele>201.6</ele>
        <time>2017-02-21T13:36:35Z</time>
      </trkpt>
      <trkpt lat="60.255744214338" lon="11.049923142992">
        <ele>202</ele>
        <time>2017-02-21T13:36:47Z</time>
      </trkpt>
      <trkpt lat="60.255768857124" lon="11.049538832877">
        <ele>202.8</ele>
        <time>2017-02-21T13:36:59Z</time>
      </trkpt>
      <trkpt lat="60.255788889865" lon="11.0491546904">
        <ele>202.6</ele>
        <time>2017-02-21T13:37:11Z</time>
      </trkpt>
      <trkpt lat="60.255820908723" lon="11.048772894855">
        <ele>203</ele>
        <time>2017-02-21T13:37:23Z</time>
      </trkpt>
      <trkpt lat="60.255841025283" lon="11.048385651075">
        <ele>199.8</ele>
        <time>2017-02-21T13:37:35Z</time>
      </trkpt>
      <trkpt lat="60.255862734404" lon="11.048026151384">
        <ele>200.4</ele>
        <time>2017-02-21T13:37:46Z</time>
      </trkpt>
      <trkpt lat="60.255891819597" lon="11.047648630608">
        <ele>202.2</ele>
        <time>2017-02-21T13:37:58Z</time>
      </trkpt>
      <trkpt lat="60.255932471812" lon="11.047283263587">
        <ele>201.2</ele>
        <time>2017-02-21T13:38:09Z</time>
      </trkpt>
      <trkpt lat="60.255959210073" lon="11.046915717272">
        <ele>201</ele>
        <time>2017-02-21T13:38:21Z</time>
      </trkpt>
      <trkpt lat="60.255988295266" lon="11.046540627247">
        <ele>200.2</ele>
        <time>2017-02-21T13:38:34Z</time>
      </trkpt>
      <trkpt lat="60.256014027699" lon="11.046156149494">
        <ele>201.8</ele>
        <time>2017-02-21T13:38:46Z</time>
      </trkpt>
      <trkpt lat="60.256047722937" lon="11.045786591523">
        <ele>201.8</ele>
        <time>2017-02-21T13:38:59Z</time>
      </trkpt>
      <trkpt lat="60.256084938573" lon="11.045415776267">
        <ele>203.4</ele>
        <time>2017-02-21T13:39:11Z</time>
      </trkpt>
      <trkpt lat="60.256120645467" lon="11.045038506948">
        <ele>206.4</ele>
        <time>2017-02-21T13:39:23Z</time>
      </trkpt>
      <trkpt lat="60.256162974062" lon="11.044675822135">
        <ele>205.8</ele>
        <time>2017-02-21T13:39:35Z</time>
      </trkpt>
      <trkpt lat="60.25620840396" lon="11.044301486481">
        <ele>207.2</ele>
        <time>2017-02-21T13:39:47Z</time>
      </trkpt>
      <trkpt lat="60.256271687305" lon="11.043959169685">
        <ele>206.4</ele>
        <time>2017-02-21T13:39:59Z</time>
      </trkpt>
      <trkpt lat="60.256329690053" lon="11.043582738556">
        <ele>205.2</ele>
        <time>2017-02-21T13:40:11Z</time>
      </trkpt>
      <trkpt lat="60.256380903462" lon="11.043213767318">
        <ele>208.2</ele>
        <time>2017-02-21T13:40:22Z</time>
      </trkpt>
      <trkpt lat="60.256485258117" lon="11.042587387931">
        <ele>203.2</ele>
        <time>2017-02-21T13:40:44Z</time>
      </trkpt>
      <trkpt lat="60.256551307489" lon="11.042246998972">
        <ele>202.4</ele>
        <time>2017-02-21T13:40:56Z</time>
      </trkpt>
      <trkpt lat="60.256614004101" lon="11.041899736855">
        <ele>201.4</ele>
        <time>2017-02-21T13:41:08Z</time>
      </trkpt>
      <trkpt lat="60.256673096496" lon="11.041536213852">
        <ele>204.2</ele>
        <time>2017-02-21T13:41:21Z</time>
      </trkpt>
      <trkpt lat="60.256745180836" lon="11.041197668911">
        <ele>202.4</ele>
        <time>2017-02-21T13:41:33Z</time>
      </trkpt>
      <trkpt lat="60.25680268067" lon="11.0408482275">
        <ele>204.2</ele>
        <time>2017-02-21T13:41:45Z</time>
      </trkpt>
      <trkpt lat="60.256868730042" lon="11.040484620678">
        <ele>205.2</ele>
        <time>2017-02-21T13:41:57Z</time>
      </trkpt>
      <trkpt lat="60.25692840917" lon="11.040118247829">
        <ele>206</ele>
        <time>2017-02-21T13:42:10Z</time>
      </trkpt>
      <trkpt lat="60.257002086071" lon="11.039757658491">
        <ele>204.2</ele>
        <time>2017-02-21T13:42:23Z</time>
      </trkpt>
      <trkpt lat="60.257060759371" lon="11.039403690854">
        <ele>203</ele>
        <time>2017-02-21T13:42:35Z</time>
      </trkpt>
      <trkpt lat="60.257126138191" lon="11.039049807036">
        <ele>201.2</ele>
        <time>2017-02-21T13:42:50Z</time>
      </trkpt>
      <trkpt lat="60.257159246696" lon="11.038690139707">
        <ele>198</ele>
        <time>2017-02-21T13:43:04Z</time>
      </trkpt>
      <trkpt lat="60.257152876452" lon="11.038666251292">
        <ele>197.6</ele>
        <time>2017-02-21T13:43:05Z</time>
      </trkpt>
      <trkpt lat="60.256993704171" lon="11.038472210307">
        <ele>197.2</ele>
        <time>2017-02-21T13:43:18Z</time>
      </trkpt>
      <trkpt lat="60.256897563778" lon="11.03817272502">
        <ele>198.2</ele>
        <time>2017-02-21T13:43:30Z</time>
      </trkpt>
      <trkpt lat="60.256915668682" lon="11.037800820117">
        <ele>201.2</ele>
        <time>2017-02-21T13:43:42Z</time>
      </trkpt>
      <trkpt lat="60.256972078869" lon="11.037437297114">
        <ele>203.2</ele>
        <time>2017-02-21T13:43:54Z</time>
      </trkpt>
      <trkpt lat="60.257038379698" lon="11.03710068001">
        <ele>204.8</ele>
        <time>2017-02-21T13:44:07Z</time>
      </trkpt>
      <trkpt lat="60.257102585052" lon="11.036760877784">
        <ele>203.6</ele>
        <time>2017-02-21T13:44:19Z</time>
      </trkpt>
      <trkpt lat="60.257128149847" lon="11.036396013677">
        <ele>204.6</ele>
        <time>2017-02-21T13:44:31Z</time>
      </trkpt>
      <trkpt lat="60.257055311136" lon="11.036043890058">
        <ele>199</ele>
        <time>2017-02-21T13:44:45Z</time>
      </trkpt>
      <trkpt lat="60.256927235704" lon="11.035751026472">
        <ele>198</ele>
        <time>2017-02-21T13:44:58Z</time>
      </trkpt>
      <trkpt lat="60.25681776809" lon="11.035450954452">
        <ele>196.4</ele>
        <time>2017-02-21T13:45:11Z</time>
      </trkpt>
      <trkpt lat="60.256712910521" lon="11.035145853292">
        <ele>193.2</ele>
        <time>2017-02-21T13:45:23Z</time>
      </trkpt>
      <trkpt lat="60.256617021585" lon="11.034838153743">
        <ele>192.8</ele>
        <time>2017-02-21T13:45:34Z</time>
      </trkpt>
      <trkpt lat="60.256532280576" lon="11.034512936023">
        <ele>195.8</ele>
        <time>2017-02-21T13:45:45Z</time>
      </trkpt>
      <trkpt lat="60.256446952834" lon="11.034175899824">
        <ele>194.2</ele>
        <time>2017-02-21T13:45:57Z</time>
      </trkpt>
      <trkpt lat="60.25635089626" lon="11.033846574973">
        <ele>196.2</ele>
        <time>2017-02-21T13:46:10Z</time>
      </trkpt>
      <trkpt lat="60.25632155961" lon="11.033634261446">
        <ele>198.2</ele>
        <time>2017-02-21T13:46:18Z</time>
      </trkpt>
      <trkpt lat="60.25642549517" lon="11.03331122302">
        <ele>201.6</ele>
        <time>2017-02-21T13:46:30Z</time>
      </trkpt>
      <trkpt lat="60.256519540088" lon="11.03298935806">
        <ele>204.4</ele>
        <time>2017-02-21T13:46:42Z</time>
      </trkpt>
      <trkpt lat="60.256586008555" lon="11.032656177535">
        <ele>204.6</ele>
        <time>2017-02-21T13:46:54Z</time>
      </trkpt>
      <trkpt lat="60.256523060486" lon="11.032332971471">
        <ele>202.6</ele>
        <time>2017-02-21T13:47:07Z</time>
      </trkpt>
      <trkpt lat="60.256368917345" lon="11.032104899972">
        <ele>200.4</ele>
        <time>2017-02-21T13:47:21Z</time>
      </trkpt>
      <trkpt lat="60.256219468068" lon="11.03189468192">
        <ele>197.2</ele>
        <time>2017-02-21T13:47:33Z</time>
      </trkpt>
      <trkpt lat="60.256088961885" lon="11.031641297083">
        <ele>198</ele>
        <time>2017-02-21T13:47:45Z</time>
      </trkpt>
      <trkpt lat="60.255957617512" lon="11.031389756264">
        <ele>196.4</ele>
        <time>2017-02-21T13:47:57Z</time>
      </trkpt>
      <trkpt lat="60.255817639782" lon="11.031160511299">
        <ele>196.2</ele>
        <time>2017-02-21T13:48:08Z</time>
      </trkpt>
      <trkpt lat="60.255669531609" lon="11.030935876379">
        <ele>194.2</ele>
        <time>2017-02-21T13:48:20Z</time>
      </trkpt>
      <trkpt lat="60.255531397897" lon="11.030663296991">
        <ele>194.2</ele>
        <time>2017-02-21T13:48:33Z</time>
      </trkpt>
      <trkpt lat="60.255394353832" lon="11.030396501114">
        <ele>194.8</ele>
        <time>2017-02-21T13:48:46Z</time>
      </trkpt>
      <trkpt lat="60.255255549568" lon="11.030144960295">
        <ele>196.6</ele>
        <time>2017-02-21T13:48:58Z</time>
      </trkpt>
      <trkpt lat="60.255110542698" lon="11.029906076145">
        <ele>192.8</ele>
        <time>2017-02-21T13:49:10Z</time>
      </trkpt>
      <trkpt lat="60.254981545257" lon="11.029650595833">
        <ele>195.2</ele>
        <time>2017-02-21T13:49:22Z</time>
      </trkpt>
      <trkpt lat="60.254847602495" lon="11.029396121349">
        <ele>194.6</ele>
        <time>2017-02-21T13:49:35Z</time>
      </trkpt>
      <trkpt lat="60.254724220927" lon="11.029124631608">
        <ele>194.2</ele>
        <time>2017-02-21T13:49:47Z</time>
      </trkpt>
      <trkpt lat="60.254607041965" lon="11.02881684824">
        <ele>192.8</ele>
        <time>2017-02-21T13:50:00Z</time>
      </trkpt>
      <trkpt lat="60.254472344832" lon="11.028549130354">
        <ele>193.2</ele>
        <time>2017-02-21T13:50:12Z</time>
      </trkpt>
      <trkpt lat="60.254315268026" lon="11.028323238149">
        <ele>194.2</ele>
        <time>2017-02-21T13:50:24Z</time>
      </trkpt>
      <trkpt lat="60.254157688306" lon="11.028101536894">
        <ele>193.4</ele>
        <time>2017-02-21T13:50:37Z</time>
      </trkpt>
      <trkpt lat="60.254008658124" lon="11.027890564471">
        <ele>194.6</ele>
        <time>2017-02-21T13:50:50Z</time>
      </trkpt>
      <trkpt lat="60.253854431164" lon="11.027693086907">
        <ele>195</ele>
        <time>2017-02-21T13:51:02Z</time>
      </trkpt>
      <trkpt lat="60.25371897966" lon="11.027434421473">
        <ele>195.6</ele>
        <time>2017-02-21T13:51:15Z</time>
      </trkpt>
      <trkpt lat="60.253734318537" lon="11.027078023085">
        <ele>198.8</ele>
        <time>2017-02-21T13:51:26Z</time>
      </trkpt>
      <trkpt lat="60.253734989089" lon="11.026717266109">
        <ele>197.8</ele>
        <time>2017-02-21T13:51:38Z</time>
      </trkpt>
      <trkpt lat="60.253711100674" lon="11.026353743106">
        <ele>197.4</ele>
        <time>2017-02-21T13:51:51Z</time>
      </trkpt>
      <trkpt lat="60.253592999703" lon="11.026105135952">
        <ele>198.6</ele>
        <time>2017-02-21T13:52:04Z</time>
      </trkpt>
      <trkpt lat="60.253417063622" lon="11.025979491271">
        <ele>200.4</ele>
        <time>2017-02-21T13:52:16Z</time>
      </trkpt>
      <trkpt lat="60.253228303234" lon="11.025901371963">
        <ele>196.4</ele>
        <time>2017-02-21T13:52:29Z</time>
      </trkpt>
      <trkpt lat="60.25304256033" lon="11.025815038393">
        <ele>194.2</ele>
        <time>2017-02-21T13:52:41Z</time>
      </trkpt>
      <trkpt lat="60.252866288973" lon="11.025710683738">
        <ele>194.4</ele>
        <time>2017-02-21T13:52:54Z</time>
      </trkpt>
      <trkpt lat="60.252687419227" lon="11.025629882222">
        <ele>194</ele>
        <time>2017-02-21T13:53:05Z</time>
      </trkpt>
      <trkpt lat="60.252506705463" lon="11.025533993286">
        <ele>194.8</ele>
        <time>2017-02-21T13:53:18Z</time>
      </trkpt>
      <trkpt lat="60.252330517925" lon="11.025426537328">
        <ele>195.2</ele>
        <time>2017-02-21T13:53:30Z</time>
      </trkpt>
      <trkpt lat="60.252160868269" lon="11.02528387739">
        <ele>192.6</ele>
        <time>2017-02-21T13:53:42Z</time>
      </trkpt>
      <trkpt lat="60.251998929961" lon="11.025121184711">
        <ele>194</ele>
        <time>2017-02-21T13:53:53Z</time>
      </trkpt>
      <trkpt lat="60.251844535363" lon="11.024910715202">
        <ele>195.4</ele>
        <time>2017-02-21T13:54:05Z</time>
      </trkpt>
      <trkpt lat="60.25169139805" lon="11.024679877676">
        <ele>193.4</ele>
        <time>2017-02-21T13:54:17Z</time>
      </trkpt>
      <trkpt lat="60.251545636809" lon="11.024422301889">
        <ele>192.8</ele>
        <time>2017-02-21T13:54:29Z</time>
      </trkpt>
      <trkpt lat="60.251398199188" lon="11.024178053323">
        <ele>192.8</ele>
        <time>2017-02-21T13:54:41Z</time>
      </trkpt>
      <trkpt lat="60.2512681121" lon="11.023888458678">
        <ele>190.6</ele>
        <time>2017-02-21T13:54:54Z</time>
      </trkpt>
      <trkpt lat="60.251124530153" lon="11.023631553443">
        <ele>191</ele>
        <time>2017-02-21T13:55:06Z</time>
      </trkpt>
      <trkpt lat="60.250990922667" lon="11.0233552022">
        <ele>190.4</ele>
        <time>2017-02-21T13:55:18Z</time>
      </trkpt>
      <trkpt lat="60.250893524989" lon="11.023029230109">
        <ele>191.6</ele>
        <time>2017-02-21T13:55:30Z</time>
      </trkpt>
      <trkpt lat="60.250815154224" lon="11.022695630489">
        <ele>190.8</ele>
        <time>2017-02-21T13:55:42Z</time>
      </trkpt>
      <trkpt lat="60.250715493433" lon="11.022368401113">
        <ele>191.6</ele>
        <time>2017-02-21T13:55:55Z</time>
      </trkpt>
      <trkpt lat="60.250599487937" lon="11.022062210306">
        <ele>196</ele>
        <time>2017-02-21T13:56:08Z</time>
      </trkpt>
      <trkpt lat="60.250473675618" lon="11.021773034756">
        <ele>195.8</ele>
        <time>2017-02-21T13:56:20Z</time>
      </trkpt>
      <trkpt lat="60.250268235249" lon="11.02134438439">
        <ele>192.4</ele>
        <time>2017-02-21T13:56:40Z</time>
      </trkpt>
      <trkpt lat="60.250126832596" lon="11.021119162737">
        <ele>190.4</ele>
        <time>2017-02-21T13:56:52Z</time>
      </trkpt>
      <trkpt lat="60.249976042215" lon="11.020906262477">
        <ele>190.2</ele>
        <time>2017-02-21T13:57:03Z</time>
      </trkpt>
      <trkpt lat="60.249821228522" lon="11.020682298109">
        <ele>191.4</ele>
        <time>2017-02-21T13:57:15Z</time>
      </trkpt>
      <trkpt lat="60.249649651029" lon="11.020504601829">
        <ele>191.8</ele>
        <time>2017-02-21T13:57:27Z</time>
      </trkpt>
      <trkpt lat="60.24949366387" lon="11.020303268591">
        <ele>192.6</ele>
        <time>2017-02-21T13:57:39Z</time>
      </trkpt>
      <trkpt lat="60.249334994503" lon="11.02011308328">
        <ele>194</ele>
        <time>2017-02-21T13:57:51Z</time>
      </trkpt>
      <trkpt lat="60.249161489173" lon="11.019936979561">
        <ele>194.4</ele>
        <time>2017-02-21T13:58:03Z</time>
      </trkpt>
      <trkpt lat="60.248984128169" lon="11.019792643243">
        <ele>194.6</ele>
        <time>2017-02-21T13:58:16Z</time>
      </trkpt>
      <trkpt lat="60.248809281735" lon="11.0196755481">
        <ele>193.8</ele>
        <time>2017-02-21T13:58:28Z</time>
      </trkpt>
      <trkpt lat="60.248624377021" lon="11.019592902566">
        <ele>192.2</ele>
        <time>2017-02-21T13:58:41Z</time>
      </trkpt>
      <trkpt lat="60.24844173542" lon="11.019668926399">
        <ele>193.2</ele>
        <time>2017-02-21T13:58:54Z</time>
      </trkpt>
      <trkpt lat="60.248424552525" lon="11.020038735827">
        <ele>189.8</ele>
        <time>2017-02-21T13:59:07Z</time>
      </trkpt>
      <trkpt lat="60.248507784792" lon="11.020370910524">
        <ele>191.8</ele>
        <time>2017-02-21T13:59:21Z</time>
      </trkpt>
      <trkpt lat="60.248640973183" lon="11.020653548192">
        <ele>195.4</ele>
        <time>2017-02-21T13:59:33Z</time>
      </trkpt>
      <trkpt lat="60.248761924" lon="11.020936018222">
        <ele>196.8</ele>
        <time>2017-02-21T13:59:44Z</time>
      </trkpt>
      <trkpt lat="60.248856807108" lon="11.021265175435">
        <ele>195.4</ele>
        <time>2017-02-21T13:59:56Z</time>
      </trkpt>
      <trkpt lat="60.24892201829" lon="11.021612353733">
        <ele>193</ele>
        <time>2017-02-21T14:00:08Z</time>
      </trkpt>
      <trkpt lat="60.248975075717" lon="11.021975373822">
        <ele>192.2</ele>
        <time>2017-02-21T14:00:20Z</time>
      </trkpt>
      <trkpt lat="60.248980859228" lon="11.021986521749">
        <ele>192.4</ele>
        <time>2017-02-21T14:00:21Z</time>
      </trkpt>
      <trkpt lat="60.248995527553" lon="11.02196464499">
        <ele>192.8</ele>
        <time>2017-02-21T14:00:23Z</time>
      </trkpt>
      <trkpt lat="60.249119328216" lon="11.021725677021">
        <ele>196</ele>
        <time>2017-02-21T14:00:34Z</time>
      </trkpt>
      <trkpt lat="60.249297108315" lon="11.021622747289">
        <ele>196</ele>
        <time>2017-02-21T14:00:46Z</time>
      </trkpt>
      <trkpt lat="60.249483437952" lon="11.02152710981">
        <ele>198</ele>
        <time>2017-02-21T14:00:59Z</time>
      </trkpt>
      <trkpt lat="60.249635653256" lon="11.021672200499">
        <ele>191.8</ele>
        <time>2017-02-21T14:01:11Z</time>
      </trkpt>
      <trkpt lat="60.24971159327" lon="11.022001106255">
        <ele>189.6</ele>
        <time>2017-02-21T14:01:23Z</time>
      </trkpt>
      <trkpt lat="60.249784348162" lon="11.022353397512">
        <ele>189.4</ele>
        <time>2017-02-21T14:01:35Z</time>
      </trkpt>
      <trkpt lat="60.249860455814" lon="11.022700659629">
        <ele>190.8</ele>
        <time>2017-02-21T14:01:47Z</time>
      </trkpt>
      <trkpt lat="60.249943185167" lon="11.023036354724">
        <ele>190.8</ele>
        <time>2017-02-21T14:01:59Z</time>
      </trkpt>
      <trkpt lat="60.250012754937" lon="11.023378168606">
        <ele>190.4</ele>
        <time>2017-02-21T14:02:11Z</time>
      </trkpt>
      <trkpt lat="60.250081821793" lon="11.023713276968">
        <ele>192.8</ele>
        <time>2017-02-21T14:02:23Z</time>
      </trkpt>
      <trkpt lat="60.250161114567" lon="11.024071435555">
        <ele>194.2</ele>
        <time>2017-02-21T14:02:36Z</time>
      </trkpt>
      <trkpt lat="60.250240658798" lon="11.024397575284">
        <ele>194.8</ele>
        <time>2017-02-21T14:02:48Z</time>
      </trkpt>
      <trkpt lat="60.250327160006" lon="11.024717177131">
        <ele>195.6</ele>
        <time>2017-02-21T14:03:00Z</time>
      </trkpt>
      <trkpt lat="60.250413912671" lon="11.025062762868">
        <ele>196.4</ele>
        <time>2017-02-21T14:03:13Z</time>
      </trkpt>
      <trkpt lat="60.250500916793" lon="11.025375072462">
        <ele>197.2</ele>
        <time>2017-02-21T14:03:26Z</time>
      </trkpt>
      <trkpt lat="60.25059336915" lon="11.025707247159">
        <ele>197</ele>
        <time>2017-02-21T14:03:39Z</time>
      </trkpt>
      <trkpt lat="60.25069227557" lon="11.026017042183">
        <ele>198</ele>
        <time>2017-02-21T14:03:52Z</time>
      </trkpt>
      <trkpt lat="60.250822865572" lon="11.026299679851">
        <ele>199.2</ele>
        <time>2017-02-21T14:04:06Z</time>
      </trkpt>
      <trkpt lat="60.250988491916" lon="11.026502018917">
        <ele>199.2</ele>
        <time>2017-02-21T14:04:20Z</time>
      </trkpt>
      <trkpt lat="60.251001064766" lon="11.026559770208">
        <ele>198.4</ele>
        <time>2017-02-21T14:04:22Z</time>
      </trkpt>
      <trkpt lat="60.250995197436" lon="11.026626993046">
        <ele>198.2</ele>
        <time>2017-02-21T14:04:24Z</time>
      </trkpt>
      <trkpt lat="60.250920347069" lon="11.026961347037">
        <ele>196.4</ele>
        <time>2017-02-21T14:04:36Z</time>
      </trkpt>
      <trkpt lat="60.250849352376" lon="11.02730391529">
        <ele>195.6</ele>
        <time>2017-02-21T14:04:48Z</time>
      </trkpt>
      <trkpt lat="60.250764024634" lon="11.027636509082">
        <ele>196.6</ele>
        <time>2017-02-21T14:05:01Z</time>
      </trkpt>
      <trkpt lat="60.25067970272" lon="11.027958290223">
        <ele>193.8</ele>
        <time>2017-02-21T14:05:14Z</time>
      </trkpt>
      <trkpt lat="60.250508628141" lon="11.028079157221">
        <ele>195.2</ele>
        <time>2017-02-21T14:05:27Z</time>
      </trkpt>
      <trkpt lat="60.250366303479" lon="11.028293063309">
        <ele>193.4</ele>
        <time>2017-02-21T14:05:40Z</time>
      </trkpt>
      <trkpt lat="60.250265385403" lon="11.028603193609">
        <ele>193</ele>
        <time>2017-02-21T14:05:54Z</time>
      </trkpt>
      <trkpt lat="60.250181482584" lon="11.02894509131">
        <ele>193.2</ele>
        <time>2017-02-21T14:06:10Z</time>
      </trkpt>
      <trkpt lat="60.250096909213" lon="11.029197051224">
        <ele>193.6</ele>
        <time>2017-02-21T14:06:24Z</time>
      </trkpt>
    </trkseg>
  </trk>
</gpx>